Time;durP1;ratioP1;P1;durP2;ratioP2;P2;SDS_P1;SDS_P2;PMS_P1;PMS_P2;Temp;Humidity;BMP_temperature;BMP_pressure;BME280_temperature;BME280_humidity;BME280_pressure;Samples;Min_cycle;Max_cycle;Signal;HPM_P1;HPM_P2
2023/07/28 00:01:47;;;;;;;2.35;0.40;;;;;;;15.68;67.06;100243.47;5012370;28;20058;-78
2023/07/28 00:04:14;;;;;;;2.03;0.85;;;;;;;15.66;67.13;100234.78;5012534;28;20046;-79
2023/07/28 00:06:41;;;;;;;1.23;0.30;;;;;;;15.66;67.09;100243.53;5011993;28;20056;-79
2023/07/28 00:09:08;;;;;;;2.25;0.40;;;;;;;15.63;67.13;100234.94;5010633;28;20509;-79
2023/07/28 00:11:35;;;;;;;2.10;0.43;;;;;;;15.65;66.88;100248.84;5012687;28;20038;-79
2023/07/28 00:14:02;;;;;;;4.45;0.85;;;;;;;15.63;66.88;100248.09;5012583;28;20072;-78
2023/07/28 00:16:29;;;;;;;2.00;0.35;;;;;;;15.63;66.81;100246.31;5012228;28;20058;-78
2023/07/28 00:18:57;;;;;;;2.20;0.50;;;;;;;15.63;66.88;100242.81;5012279;28;20042;-79
2023/07/28 00:21:24;;;;;;;1.38;0.43;;;;;;;15.62;66.82;100235.81;5012338;28;20058;-79
2023/07/28 00:23:51;;;;;;;1.90;0.60;;;;;;;15.61;66.63;100244.66;5011662;28;20056;-79
2023/07/28 00:26:18;;;;;;;0.65;0.28;;;;;;;15.59;67.11;100236.81;5011189;28;20048;-79
2023/07/28 00:28:44;;;;;;;1.85;0.52;;;;;;;15.59;66.99;100243.88;5012334;28;20560;-79
2023/07/28 00:31:11;;;;;;;0.77;0.38;;;;;;;15.59;66.68;100238.63;5012335;28;20053;-79
2023/07/28 00:33:39;;;;;;;1.60;0.30;;;;;;;15.56;66.78;100236.97;5012132;28;20132;-79
2023/07/28 00:36:07;;;;;;;2.00;0.50;;;;;;;15.56;66.73;100236.13;5011927;28;20052;-79
2023/07/28 00:38:34;;;;;;;1.73;0.30;;;;;;;15.55;66.89;100231.81;5012317;28;20101;-79
2023/07/28 00:41:01;;;;;;;1.27;0.40;;;;;;;15.54;66.94;100233.59;5011549;28;20486;-79
2023/07/28 00:43:28;;;;;;;2.88;0.40;;;;;;;15.54;67.26;100228.31;5011866;28;20049;-79
2023/07/28 00:45:55;;;;;;;2.15;0.40;;;;;;;15.51;67.34;100210.88;5011862;28;20052;-79
2023/07/28 00:48:22;;;;;;;2.08;0.47;;;;;;;15.53;67.44;100213.44;5011363;28;20744;-79
2023/07/28 00:50:51;;;;;;;1.58;0.32;;;;;;;15.53;67.30;100219.53;5011850;28;20129;-79
2023/07/28 00:53:20;;;;;;;0.75;0.40;;;;;;;15.51;67.33;100216.16;5011716;28;20050;-79
2023/07/28 00:55:48;;;;;;;2.35;0.40;;;;;;;15.51;67.41;100226.69;5012022;28;20056;-79
2023/07/28 00:58:15;;;;;;;1.95;0.40;;;;;;;15.52;67.35;100220.47;5011663;28;20140;-78
2023/07/28 01:00:42;;;;;;;2.15;0.70;;;;;;;15.51;67.15;100224.06;5007180;28;20491;-78
2023/07/28 01:03:09;;;;;;;1.85;0.60;;;;;;;15.51;67.47;100220.53;5007981;28;20064;-78
2023/07/28 01:05:50;;;;;;;2.42;0.40;;;;;;;15.50;67.33;100224.97;5011614;28;20048;-79
2023/07/28 01:08:31;;;;;;;2.83;0.30;;;;;;;15.49;67.56;100218.00;5009504;28;20380;-79
2023/07/28 01:10:58;;;;;;;1.58;0.30;;;;;;;15.48;67.74;100208.41;5010980;28;20060;-79
2023/07/28 01:13:25;;;;;;;0.98;0.30;;;;;;;15.47;67.66;100213.72;5011663;28;20556;-79
2023/07/28 01:15:52;;;;;;;1.80;0.50;;;;;;;15.46;67.72;100202.34;5011330;28;20050;-79
2023/07/28 01:18:18;;;;;;;1.45;0.43;;;;;;;15.45;67.66;100205.94;5011870;28;20068;-79
2023/07/28 01:20:47;;;;;;;1.25;0.60;;;;;;;15.45;67.95;100216.44;5011248;28;20491;-79
2023/07/28 01:23:23;;;;;;;3.63;0.40;;;;;;;15.43;67.60;100201.66;5011279;28;20131;-79
2023/07/28 01:26:05;;;;;;;1.25;0.47;;;;;;;15.45;67.68;100203.28;5011770;28;20045;-79
2023/07/28 01:28:34;;;;;;;2.45;0.38;;;;;;;15.44;67.93;100206.84;5010383;28;20054;-79
2023/07/28 01:31:02;;;;;;;3.20;0.43;;;;;;;15.44;67.82;100201.56;5011231;28;20601;-78
2023/07/28 01:33:29;;;;;;;1.98;0.30;;;;;;;15.43;68.04;100207.78;5011345;28;20053;-79
2023/07/28 01:35:58;;;;;;;3.33;0.50;;;;;;;15.43;67.96;100199.88;5011256;28;20072;-79
2023/07/28 01:38:25;;;;;;;2.05;0.30;;;;;;;15.43;67.96;100199.88;5010839;28;20053;-79
2023/07/28 01:40:52;;;;;;;0.85;0.52;;;;;;;15.43;68.22;100202.50;5011258;28;20061;-79
2023/07/28 01:43:19;;;;;;;2.97;0.40;;;;;;;15.43;68.16;100201.66;5011137;28;20042;-79
2023/07/28 01:45:47;;;;;;;3.63;0.40;;;;;;;15.42;68.06;100199.94;5011566;28;20064;-79
2023/07/28 01:48:14;;;;;;;1.65;0.47;;;;;;;15.41;68.17;100198.22;5007428;28;20052;-79
2023/07/28 01:50:41;;;;;;;0.95;0.30;;;;;;;15.36;68.35;100185.28;5004298;28;20060;-79
2023/07/28 01:53:08;;;;;;;0.75;0.30;;;;;;;15.39;68.01;100190.41;5002618;28;20041;-79
2023/07/28 01:55:35;;;;;;;1.75;0.50;;;;;;;15.40;67.90;100196.53;5011253;28;20049;-79
2023/07/28 01:58:03;;;;;;;3.63;0.40;;;;;;;15.39;67.91;100202.72;5002506;28;20490;-79
2023/07/28 02:00:30;;;;;;;1.65;0.30;;;;;;;15.31;67.66;100184.66;5010805;28;20056;-79
2023/07/28 02:03:01;;;;;;;1.52;0.35;;;;;;;15.36;67.59;100200.22;5010620;28;20060;-79
2023/07/28 02:05:28;;;;;;;3.72;0.35;;;;;;;15.35;67.90;100201.16;5009853;28;20108;-79
2023/07/28 02:07:55;;;;;;;2.15;0.40;;;;;;;15.34;67.53;100208.22;5010671;28;20050;-79
2023/07/28 02:10:23;;;;;;;2.53;0.40;;;;;;;15.31;67.35;100203.06;5011006;28;20048;-79
2023/07/28 02:12:50;;;;;;;2.28;0.30;;;;;;;15.30;67.41;100199.59;5010735;28;20057;-80
2023/07/28 02:15:17;;;;;;;2.60;0.30;;;;;;;15.28;67.39;100197.94;5011222;28;20042;-79
2023/07/28 02:17:44;;;;;;;1.02;0.50;;;;;;;15.28;67.48;100203.22;5010719;28;20078;-79
2023/07/28 02:20:15;;;;;;;2.22;1.50;;;;;;;15.25;67.36;100200.72;5011088;28;20395;-79
2023/07/28 02:22:42;;;;;;;0.60;0.20;;;;;;;15.22;67.17;100192.97;5010898;28;20054;-79
2023/07/28 02:25:09;;;;;;;1.45;0.40;;;;;;;15.21;67.07;100196.53;5010200;28;20517;-74
2023/07/28 02:27:36;;;;;;;0.70;0.30;;;;;;;15.19;67.05;100193.13;5007425;28;20056;-74
2023/07/28 02:30:04;;;;;;;1.08;0.30;;;;;;;15.14;67.02;100184.59;5007278;28;20787;-74
2023/07/28 02:32:31;;;;;;;0.70;0.30;;;;;;;15.04;66.97;100182.41;5007346;28;20104;-74
2023/07/28 02:34:58;;;;;;;0.38;0.25;;;;;;;15.10;67.07;100194.41;5007231;28;20050;-74
2023/07/28 02:37:26;;;;;;;2.33;0.30;;;;;;;15.09;66.97;100194.50;5007289;28;20050;-74
2023/07/28 02:39:53;;;;;;;0.70;0.50;;;;;;;15.05;67.21;100201.66;5007266;28;20048;-73
2023/07/28 02:42:20;;;;;;;0.50;0.30;;;;;;;15.02;67.14;100197.38;5007058;28;20057;-74
2023/07/28 02:44:47;;;;;;;0.98;0.30;;;;;;;14.99;67.18;100194.06;5007309;28;20048;-74
2023/07/28 02:47:14;;;;;;;0.35;0.20;;;;;;;14.97;66.96;100195.88;5007162;28;20401;-74
2023/07/28 02:49:43;;;;;;;3.03;0.30;;;;;;;14.94;67.14;100199.53;5007195;28;20050;-74
2023/07/28 02:52:10;;;;;;;0.40;0.30;;;;;;;14.92;67.04;100200.53;5005936;28;20469;-74
2023/07/28 02:54:38;;;;;;;1.88;0.30;;;;;;;14.88;67.20;100199.78;5006344;28;20410;-74
2023/07/28 02:57:05;;;;;;;2.38;0.30;;;;;;;14.85;67.04;100195.53;5006125;28;20430;-74
2023/07/28 02:59:32;;;;;;;1.45;0.40;;;;;;;14.84;67.12;100198.25;5005885;28;20046;-74
2023/07/28 03:01:59;;;;;;;1.95;0.30;;;;;;;14.81;67.19;100201.84;5006669;28;20061;-74
2023/07/28 03:04:26;;;;;;;2.55;0.40;;;;;;;14.78;67.11;100198.53;5006998;28;20046;-74
2023/07/28 03:06:53;;;;;;;0.60;0.30;;;;;;;14.77;67.23;100202.06;5006847;28;20406;-74
2023/07/28 03:09:20;;;;;;;1.48;0.30;;;;;;;14.74;67.28;100194.31;5006841;28;20049;-74
2023/07/28 03:11:49;;;;;;;0.73;0.30;;;;;;;14.73;67.42;100197.88;5006833;28;20418;-74
2023/07/28 03:14:15;;;;;;;1.08;0.40;;;;;;;14.71;67.53;100195.28;5010363;28;20533;-74
2023/07/28 03:16:43;;;;;;;3.83;0.40;;;;;;;14.69;67.95;100188.44;5010545;28;20046;-74
2023/07/28 03:19:10;;;;;;;2.35;0.30;;;;;;;14.65;67.74;100187.69;5010210;28;20056;-74
2023/07/28 03:21:37;;;;;;;3.80;0.52;;;;;;;14.67;67.62;100190.25;5010290;28;20576;-74
2023/07/28 03:24:05;;;;;;;1.52;0.30;;;;;;;14.66;67.81;100188.53;5010305;28;20425;-74
2023/07/28 03:26:32;;;;;;;0.73;0.30;;;;;;;14.64;67.91;100190.41;5010342;28;20050;-73
2023/07/28 03:29:00;;;;;;;3.00;0.50;;;;;;;14.64;68.23;100190.41;5009903;28;20046;-74
2023/07/28 03:31:27;;;;;;;0.30;0.30;;;;;;;14.62;68.23;100196.56;5009701;28;20137;-73
2023/07/28 03:33:54;;;;;;;1.67;0.73;;;;;;;14.59;68.32;100191.44;5009769;28;20056;-74
2023/07/28 03:36:20;;;;;;;0.40;0.35;;;;;;;14.60;68.51;100192.31;5010131;28;20056;-74
2023/07/28 03:38:48;;;;;;;1.52;0.30;;;;;;;14.60;68.26;100190.53;5010027;28;20042;-74
2023/07/28 03:41:14;;;;;;;3.35;0.52;;;;;;;14.59;68.41;100191.44;5010144;28;20104;-74
2023/07/28 03:43:42;;;;;;;1.95;0.30;;;;;;;14.58;68.32;100196.78;5009938;28;20046;-74
2023/07/28 03:46:10;;;;;;;0.47;0.45;;;;;;;14.57;68.50;100193.31;5009929;28;20765;-74
2023/07/28 03:48:37;;;;;;;2.67;0.50;;;;;;;14.56;68.47;100188.09;5006429;28;20048;-74
2023/07/28 03:51:04;;;;;;;4.20;0.40;;;;;;;14.55;68.64;100192.50;5004635;28;20046;-74
2023/07/28 03:53:31;;;;;;;1.13;0.35;;;;;;;14.55;68.80;100192.50;5009549;28;20050;-74
2023/07/28 03:55:59;;;;;;;2.58;0.75;;;;;;;14.55;68.97;100191.66;5008872;28;20046;-74
2023/07/28 03:58:26;;;;;;;2.50;0.40;;;;;;;14.55;68.97;100187.25;5009715;28;20053;-74
2023/07/28 04:00:53;;;;;;;1.13;0.73;;;;;;;14.55;69.26;100187.25;5009592;28;20058;-74
2023/07/28 04:03:22;;;;;;;0.68;0.30;;;;;;;14.55;69.35;100189.03;5009259;28;20065;-74
2023/07/28 04:05:49;;;;;;;1.73;0.30;;;;;;;14.55;69.46;100192.50;5009358;28;20422;-74
2023/07/28 04:08:15;;;;;;;2.03;0.40;;;;;;;14.55;69.69;100189.88;5009161;28;20038;-74
2023/07/28 04:10:42;;;;;;;0.95;0.40;;;;;;;14.57;69.75;100185.41;5009136;28;20053;-74
2023/07/28 04:13:09;;;;;;;1.27;0.30;;;;;;;14.58;70.02;100192.38;5009296;28;20042;-74
2023/07/28 04:15:36;;;;;;;1.25;0.50;;;;;;;14.60;70.32;100190.53;5009439;28;20046;-74
2023/07/28 04:18:03;;;;;;;1.15;0.40;;;;;;;14.64;70.33;100190.41;5009396;28;20041;-74
2023/07/28 04:20:32;;;;;;;1.83;0.70;;;;;;;14.66;70.63;100188.53;5008782;28;20050;-75
2023/07/28 04:22:59;;;;;;;1.05;0.40;;;;;;;14.68;70.79;100179.66;5009195;28;20060;-74
2023/07/28 04:25:26;;;;;;;0.70;0.40;;;;;;;14.72;70.95;100180.41;5009262;28;20042;-74
2023/07/28 04:27:52;;;;;;;2.15;0.60;;;;;;;14.74;71.30;100184.66;5009354;28;20042;-73
2023/07/28 04:30:19;;;;;;;1.45;0.47;;;;;;;14.77;71.39;100179.28;5009091;28;20041;-75
2023/07/28 04:32:46;;;;;;;0.88;0.40;;;;;;;14.83;72.07;100175.50;5008743;28;20037;-73
2023/07/28 04:35:14;;;;;;;1.05;0.50;;;;;;;14.88;72.25;100173.50;5009059;28;20046;-74
2023/07/28 04:37:42;;;;;;;1.98;0.50;;;;;;;14.95;72.53;100179.34;5009061;28;20164;-74
2023/07/28 04:40:09;;;;;;;0.50;0.40;;;;;;;15.01;72.79;100179.91;5007622;28;20046;-73
2023/07/28 04:42:37;;;;;;;1.25;0.65;;;;;;;15.10;72.93;100177.78;5007196;28;20042;-75
2023/07/28 04:45:04;;;;;;;3.03;0.40;;;;;;;15.19;73.11;100178.19;5006879;28;20104;-74
2023/07/28 04:47:31;;;;;;;0.47;0.40;;;;;;;15.30;73.01;100175.06;5009077;28;20056;-74
2023/07/28 04:49:59;;;;;;;0.95;0.50;;;;;;;15.40;73.33;100176.34;5007903;28;20052;-74
2023/07/28 04:52:25;;;;;;;1.20;0.50;;;;;;;15.49;72.93;100173.25;5008524;28;20050;-74
2023/07/28 04:54:54;;;;;;;1.42;0.47;;;;;;;15.60;73.04;100170.09;5007767;28;20054;-74
2023/07/28 04:57:21;;;;;;;3.35;0.55;;;;;;;15.69;72.83;100172.31;5008656;28;20084;-74
2023/07/28 04:59:48;;;;;;;1.42;0.40;;;;;;;15.79;72.74;100175.31;5008456;28;20046;-74
2023/07/28 05:02:14;;;;;;;1.10;0.50;;;;;;;15.92;72.42;100172.94;5008121;28;20521;-75
2023/07/28 05:04:41;;;;;;;3.97;0.40;;;;;;;16.02;72.39;100168.06;5007161;28;20049;-75
2023/07/28 05:07:08;;;;;;;1.25;0.40;;;;;;;16.15;72.17;100164.72;5008085;28;20056;-74
2023/07/28 05:09:35;;;;;;;2.05;0.32;;;;;;;16.28;71.78;100164.97;5008137;28;20049;-74
2023/07/28 05:12:04;;;;;;;0.95;0.40;;;;;;;16.41;71.60;100162.53;5008210;28;20049;-74
2023/07/28 05:14:31;;;;;;;0.70;0.30;;;;;;;16.54;71.21;100165.38;5008467;28;20057;-74
2023/07/28 05:16:58;;;;;;;1.27;0.40;;;;;;;16.67;71.19;100160.28;5008029;28;20053;-74
2023/07/28 05:19:25;;;;;;;1.27;0.30;;;;;;;16.79;70.65;100160.53;5008302;28;20049;-74
2023/07/28 05:21:52;;;;;;;2.17;0.32;;;;;;;16.92;70.30;100157.22;5008184;28;20045;-74
2023/07/28 05:24:19;;;;;;;0.40;0.30;;;;;;;17.05;69.82;100156.47;5008169;28;20064;-75
2023/07/28 05:26:46;;;;;;;0.30;0.30;;;;;;;17.13;69.57;100156.03;5008230;28;20041;-74
2023/07/28 05:29:14;;;;;;;0.63;0.40;;;;;;;17.27;69.06;100158.75;5007969;28;20050;-74
2023/07/28 05:31:41;;;;;;;0.98;0.30;;;;;;;17.39;68.33;100153.72;5005383;28;20124;-76
2023/07/28 05:34:08;;;;;;;3.15;0.30;;;;;;;17.48;68.58;100150.56;5006364;28;20116;-74
2023/07/28 05:36:35;;;;;;;2.28;0.25;;;;;;;17.56;68.14;100156.25;5008099;28;20056;-74
2023/07/28 05:39:02;;;;;;;2.55;0.60;;;;;;;17.66;68.05;100146.84;5007977;28;20451;-75
2023/07/28 05:41:29;;;;;;;1.27;0.30;;;;;;;17.74;67.02;100147.25;5007647;28;20046;-74
2023/07/28 05:43:56;;;;;;;2.40;0.25;;;;;;;17.85;66.82;100151.13;5007564;28;20514;-74
2023/07/28 05:46:24;;;;;;;0.30;0.30;;;;;;;17.92;66.90;100153.28;5007537;28;20042;-74
2023/07/28 05:48:51;;;;;;;1.38;0.30;;;;;;;17.93;66.48;100143.56;5007019;28;20066;-74
2023/07/28 05:51:18;;;;;;;1.00;0.30;;;;;;;18.09;65.81;100152.28;5007799;28;20056;-74
2023/07/28 05:53:45;;;;;;;3.83;0.60;;;;;;;18.17;65.61;100147.41;5007645;28;20513;-75
2023/07/28 05:56:12;;;;;;;0.38;0.20;;;;;;;18.24;64.96;100149.66;5007823;28;20399;-75
2023/07/28 05:58:39;;;;;;;0.35;0.20;;;;;;;18.27;65.16;100147.72;5007819;28;20050;-74
2023/07/28 06:01:06;;;;;;;0.70;0.20;;;;;;;18.34;64.57;100142.91;5007409;28;20061;-74
2023/07/28 06:03:34;;;;;;;0.60;0.20;;;;;;;18.40;65.03;100145.16;5007431;28;20061;-75
2023/07/28 06:06:01;;;;;;;0.55;0.30;;;;;;;18.45;64.50;100147.53;5007574;28;20158;-74
2023/07/28 06:08:28;;;;;;;0.88;0.30;;;;;;;18.49;64.46;100157.81;5007527;28;20524;-74
2023/07/28 06:10:55;;;;;;;0.50;0.30;;;;;;;18.52;64.17;100157.63;5007426;28;20050;-75
2023/07/28 06:13:22;;;;;;;1.73;0.30;;;;;;;18.55;63.84;100157.44;5007507;28;20060;-74
2023/07/28 06:15:49;;;;;;;0.70;0.30;;;;;;;18.58;63.67;100161.69;5006782;28;20461;-74
2023/07/28 06:18:16;;;;;;;0.85;0.28;;;;;;;18.57;63.52;100150.25;5007451;28;20418;-74
2023/07/28 06:20:45;;;;;;;0.30;0.20;;;;;;;18.64;63.83;100156.88;5007040;28;20133;-74
2023/07/28 06:23:12;;;;;;;0.95;0.20;;;;;;;18.65;63.56;100153.28;5007205;28;20796;-74
2023/07/28 06:25:43;;;;;;;0.73;0.20;;;;;;;18.66;63.17;100157.63;5007243;28;20046;-74
2023/07/28 06:28:10;;;;;;;1.10;0.20;;;;;;;18.66;63.27;100143.56;5007355;28;20542;-76
2023/07/28 06:30:37;;;;;;;1.13;0.20;;;;;;;18.69;63.24;100148.66;5005448;28;20573;-74
2023/07/28 06:33:04;;;;;;;0.43;0.20;;;;;;;18.52;62.73;100123.25;5006080;28;20136;-74
2023/07/28 06:35:31;;;;;;;0.38;0.20;;;;;;;18.72;62.83;100151.09;5007254;28;20050;-74
2023/07/28 06:38:03;;;;;;;0.65;0.22;;;;;;;18.73;62.35;100149.34;5007181;28;20085;-74
2023/07/28 06:40:30;;;;;;;0.38;0.20;;;;;;;18.74;62.45;100151.06;5006086;28;20046;-75
2023/07/28 06:42:57;;;;;;;1.23;0.20;;;;;;;18.73;61.86;100149.34;5006771;28;20494;-74
2023/07/28 06:45:24;;;;;;;1.45;0.20;;;;;;;18.74;61.52;100156.34;5007478;28;20065;-74
2023/07/28 06:47:51;;;;;;;0.55;0.10;;;;;;;18.74;61.01;100146.59;5009488;28;20052;-75
2023/07/28 06:50:18;;;;;;;0.65;0.22;;;;;;;18.75;61.00;100148.28;5010071;28;20056;-74
2023/07/28 06:52:45;;;;;;;1.85;0.20;;;;;;;18.78;61.41;100147.25;5010016;28;20049;-74
2023/07/28 06:55:13;;;;;;;0.20;0.20;;;;;;;18.81;61.12;100147.06;5010628;28;20637;-74
2023/07/28 06:57:40;;;;;;;0.20;0.10;;;;;;;18.82;60.61;100140.84;5010868;28;20060;-73
2023/07/28 07:00:09;;;;;;;1.98;0.22;;;;;;;18.85;60.13;100138.84;5010520;28;20063;-74
2023/07/28 07:02:36;;;;;;;0.80;0.20;;;;;;;18.87;60.52;100146.69;5009092;28;20062;-74
2023/07/28 07:05:03;;;;;;;0.35;0.10;;;;;;;18.90;60.52;100138.56;5010671;28;20049;-74
2023/07/28 07:07:31;;;;;;;0.22;0.13;;;;;;;18.91;60.16;100129.66;5010531;28;20064;-74
2023/07/28 07:09:59;;;;;;;1.50;0.20;;;;;;;18.96;59.94;100126.75;5009128;28;20514;-75
2023/07/28 07:12:27;;;;;;;0.68;0.20;;;;;;;19.04;60.54;100127.06;5010529;28;20045;-75
2023/07/28 07:14:54;;;;;;;0.85;0.20;;;;;;;19.10;60.37;100122.25;5010447;28;20052;-75
2023/07/28 07:17:21;;;;;;;2.72;0.28;;;;;;;19.21;60.09;100121.56;5010530;28;20046;-75
2023/07/28 07:19:48;;;;;;;0.35;0.20;;;;;;;19.31;59.92;100125.31;5009906;28;20757;-79
2023/07/28 07:22:15;;;;;;;0.10;0.10;;;;;;;19.41;59.47;100114.97;5008884;28;20069;-75
2023/07/28 07:24:42;;;;;;;1.70;0.20;;;;;;;19.57;59.94;100113.94;5010566;28;20050;-75
2023/07/28 07:27:10;;;;;;;0.28;0.20;;;;;;;19.67;60.16;100110.63;5010291;28;20142;-75
2023/07/28 07:29:39;;;;;;;0.63;0.20;;;;;;;19.74;59.40;100108.41;5010710;28;20042;-75
2023/07/28 07:32:07;;;;;;;2.72;0.20;;;;;;;19.86;59.31;100104.06;5008576;28;20138;-75
2023/07/28 07:34:36;;;;;;;0.38;0.10;;;;;;;19.95;59.23;100109.63;5010126;28;20054;-77
2023/07/28 07:37:03;;;;;;;0.10;0.10;;;;;;;20.02;59.07;100114.50;5010301;28;20060;-75
2023/07/28 07:39:30;;;;;;;0.60;0.10;;;;;;;20.06;58.84;100115.97;5010080;28;20053;-75
2023/07/28 07:41:58;;;;;;;0.10;0.10;;;;;;;20.09;58.21;100111.28;5009826;28;20045;-74
2023/07/28 07:44:24;;;;;;;1.45;0.20;;;;;;;20.14;58.02;100116.28;5009550;28;20053;-75
2023/07/28 07:46:53;;;;;;;0.32;0.10;;;;;;;20.18;57.50;100104.53;5009606;28;20050;-76
2023/07/28 07:49:19;;;;;;;1.05;0.10;;;;;;;20.20;57.98;100102.59;5007103;28;20050;-74
2023/07/28 07:51:46;;;;;;;0.90;0.13;;;;;;;20.22;57.71;100104.19;5009561;28;20053;-74
2023/07/28 07:54:15;;;;;;;0.28;0.10;;;;;;;20.23;56.97;100102.38;5009420;28;20066;-75
2023/07/28 07:56:42;;;;;;;2.92;0.20;;;;;;;20.22;57.11;100106.84;5009743;28;20675;-76
2023/07/28 07:59:09;;;;;;;0.10;0.10;;;;;;;20.23;57.27;100118.31;5008894;28;20418;-76
2023/07/28 08:01:36;;;;;;;1.00;0.10;;;;;;;20.24;57.29;100124.47;5008824;28;20049;-75
2023/07/28 08:04:04;;;;;;;1.42;0.30;;;;;;;20.24;57.27;100125.31;5009451;28;20053;-75
2023/07/28 08:06:31;;;;;;;0.40;0.10;;;;;;;20.21;57.08;100126.38;5009655;28;20446;-75
2023/07/28 08:08:59;;;;;;;0.73;0.10;;;;;;;20.17;56.99;100127.53;5009227;28;20112;-74
2023/07/28 08:11:26;;;;;;;0.45;0.10;;;;;;;20.14;56.92;100118.94;5009649;28;20053;-75
2023/07/28 08:13:53;;;;;;;1.75;0.10;;;;;;;20.13;56.96;100118.09;5009614;28;20482;-74
2023/07/28 08:16:20;;;;;;;0.20;0.10;;;;;;;20.12;57.11;100126.16;5009489;28;20529;-75
2023/07/28 08:18:46;;;;;;;0.10;0.10;;;;;;;20.12;56.98;100129.69;5009545;28;20057;-74
2023/07/28 08:21:15;;;;;;;0.28;0.10;;;;;;;20.12;56.72;100131.44;5009198;28;20065;-75
2023/07/28 08:23:41;;;;;;;1.77;0.10;;;;;;;20.11;57.07;100132.41;5009283;28;20049;-75
2023/07/28 08:26:08;;;;;;;0.55;0.10;;;;;;;20.10;57.09;100133.38;5009040;28;20077;-75
2023/07/28 08:28:35;;;;;;;0.10;0.10;;;;;;;20.09;56.67;100129.00;5009279;28;20049;-74
2023/07/28 08:31:03;;;;;;;0.30;0.10;;;;;;;20.09;57.36;100129.00;5008796;28;20054;-75
2023/07/28 08:33:30;;;;;;;0.90;0.10;;;;;;;20.09;57.44;100134.31;5009020;28;20038;-74
2023/07/28 08:35:57;;;;;;;0.20;0.10;;;;;;;20.09;57.31;100139.63;5007874;28;20081;-74
2023/07/28 08:38:26;;;;;;;0.20;0.10;;;;;;;20.08;57.31;100135.28;5008136;28;20042;-74
2023/07/28 08:40:53;;;;;;;0.20;0.10;;;;;;;20.07;57.22;100141.53;5007790;28;20100;-75
2023/07/28 08:43:20;;;;;;;1.85;1.30;;;;;;;20.06;57.19;100143.31;5008565;28;20042;-74
2023/07/28 08:45:47;;;;;;;0.20;0.03;;;;;;;20.05;57.33;100140.78;5008972;28;20061;-75
2023/07/28 08:48:13;;;;;;;1.75;0.20;;;;;;;20.03;57.58;100142.69;5008643;28;20064;-74
2023/07/28 08:50:41;;;;;;;0.45;0.10;;;;;;;20.00;57.25;100143.75;5007727;28;20054;-74
2023/07/28 08:53:08;;;;;;;0.10;0.10;;;;;;;19.96;57.47;100134.31;5008477;28;20777;-74
2023/07/28 08:55:36;;;;;;;0.25;0.10;;;;;;;19.94;57.10;100126.44;5008619;28;20048;-74
2023/07/28 08:58:15;;;;;;;0.95;0.30;;;;;;;19.91;57.28;100129.31;5008282;28;20046;-75
2023/07/28 09:00:43;;;;;;;0.90;0.10;;;;;;;19.86;57.18;100131.41;5007855;28;20653;-74
2023/07/28 09:03:11;;;;;;;0.52;0.10;;;;;;;19.66;57.19;100108.06;5008090;28;20050;-74
2023/07/28 09:05:40;;;;;;;1.35;0.10;;;;;;;19.82;57.63;100140.53;5008204;28;20041;-74
2023/07/28 09:08:07;;;;;;;0.80;0.13;;;;;;;19.76;57.76;100136.50;5006494;28;20100;-73
2023/07/28 09:10:43;;;;;;;0.63;0.20;;;;;;;19.72;58.01;100139.44;5007906;28;20049;-73
2023/07/28 09:13:11;;;;;;;0.10;0.10;;;;;;;19.69;58.45;100150.25;5006731;28;20081;-74
2023/07/28 09:15:38;;;;;;;1.55;0.10;;;;;;;19.64;58.35;100144.41;5006550;28;20045;-74
2023/07/28 09:18:04;;;;;;;0.80;0.10;;;;;;;19.59;58.86;100144.69;5008233;28;20559;-74
2023/07/28 09:20:36;;;;;;;0.10;0.03;;;;;;;19.57;58.56;100141.28;5008439;28;20080;-74
2023/07/28 09:23:03;;;;;;;0.25;0.10;;;;;;;19.53;58.88;100138.00;5007912;28;20077;-74
2023/07/28 09:25:30;;;;;;;0.20;0.10;;;;;;;19.49;59.27;100138.28;5007502;28;20058;-74
2023/07/28 09:27:59;;;;;;;0.95;0.10;;;;;;;19.42;59.67;100132.56;5006843;28;20061;-75
2023/07/28 09:30:26;;;;;;;0.57;0.10;;;;;;;19.31;60.05;100113.88;5006358;28;20454;-74
2023/07/28 09:32:55;;;;;;;1.95;0.10;;;;;;;19.36;60.34;100130.31;5007865;28;20081;-74
2023/07/28 09:35:23;;;;;;;4.70;0.10;;;;;;;19.32;60.74;100136.75;5008003;28;20049;-74
2023/07/28 09:37:52;;;;;;;1.08;0.50;;;;;;;19.26;60.89;100140.63;5008069;28;20057;-74
2023/07/28 09:40:20;;;;;;;4.68;0.50;;;;;;;19.23;61.48;100140.84;5007887;28;20049;-74
2023/07/28 09:42:50;;;;;;;0.85;0.17;;;;;;;19.19;61.87;100146.44;5007825;28;20058;-76
2023/07/28 09:45:19;;;;;;;1.05;0.10;;;;;;;19.15;61.78;100148.41;5008131;28;20077;-74
2023/07/28 09:47:47;;;;;;;1.58;0.20;;;;;;;19.14;62.18;100145.88;5007653;28;20046;-74
2023/07/28 09:50:17;;;;;;;1.65;0.10;;;;;;;19.13;62.39;100144.19;5007681;28;20054;-74
2023/07/28 09:52:46;;;;;;;1.35;0.10;;;;;;;19.10;62.62;100146.09;5004963;28;20052;-74
2023/07/28 09:55:16;;;;;;;0.73;0.10;;;;;;;19.10;63.25;100138.16;5004898;28;20046;-73
2023/07/28 09:57:48;;;;;;;0.20;0.10;;;;;;;19.10;62.14;100135.50;5004931;28;20418;-74
2023/07/28 10:00:18;;;;;;;0.10;0.08;;;;;;;19.10;61.60;100132.84;5005393;28;20103;-74
2023/07/28 10:02:46;;;;;;;0.03;0.00;;;;;;;19.11;61.97;100133.69;5007278;28;20085;-74
2023/07/28 10:05:15;;;;;;;0.20;0.10;;;;;;;19.11;61.45;100131.03;5007726;28;20050;-74
2023/07/28 10:07:44;;;;;;;0.28;0.05;;;;;;;19.12;61.04;100137.19;5007623;28;20686;-74
2023/07/28 10:10:13;;;;;;;0.30;0.00;;;;;;;19.10;61.38;100134.66;5007611;28;20133;-74
2023/07/28 10:12:46;;;;;;;0.00;0.00;;;;;;;19.10;60.68;100138.16;5007618;28;20168;-73
2023/07/28 10:15:16;;;;;;;0.00;0.00;;;;;;;19.10;61.02;100143.44;5005152;28;20042;-75
2023/07/28 10:17:48;;;;;;;0.10;0.00;;;;;;;19.10;61.11;100138.16;5007743;28;20101;-74
2023/07/28 10:20:49;;;;;;;0.13;0.08;;;;;;;19.11;61.65;100139.00;5007546;28;20278;-73
2023/07/28 10:23:17;;;;;;;0.15;0.08;;;;;;;19.08;61.79;100145.31;4950305;29;20111;-74
2023/07/28 10:25:45;;;;;;;0.10;0.05;;;;;;;19.06;61.56;100135.78;4999508;28;20112;-74
2023/07/28 10:28:40;;;;;;;0.75;0.10;;;;;;;19.08;61.04;100144.47;5011244;28;20050;-73
2023/07/28 10:31:10;;;;;;;0.10;0.00;;;;;;;19.06;61.08;100147.22;4993391;28;20057;-74
2023/07/28 10:33:40;;;;;;;0.47;0.08;;;;;;;19.03;61.00;100139.47;5010091;28;20046;-74
2023/07/28 10:36:15;;;;;;;0.20;0.10;;;;;;;19.04;60.85;100143.84;5010100;28;20502;-73
2023/07/28 10:38:43;;;;;;;;;;;;;;;19.03;60.99;100150.06;5011034;28;20561;-73
2023/07/28 10:41:16;;;;;;;0.00;0.00;;;;;;;18.94;61.28;100144.50;5010383;28;20384;-74
2023/07/28 10:43:44;;;;;;;1.55;0.10;;;;;;;18.93;61.69;100151.59;5011087;28;20049;-74
2023/07/28 10:46:14;;;;;;;0.08;0.00;;;;;;;18.91;61.92;100155.28;5011264;28;20057;-74
2023/07/28 10:48:46;;;;;;;0.20;0.10;;;;;;;18.88;62.17;100153.69;5011037;28;20054;-75
2023/07/28 10:51:20;;;;;;;1.13;0.10;;;;;;;18.85;62.63;100160.00;5009933;28;20050;-74
2023/07/28 10:53:50;;;;;;;0.20;0.03;;;;;;;18.83;63.08;100153.13;5010648;28;20057;-76
2023/07/28 10:56:17;;;;;;;0.40;0.10;;;;;;;18.80;63.25;100151.50;5010930;28;20502;-74
2023/07/28 10:58:44;;;;;;;0.40;0.10;;;;;;;18.79;63.27;100148.97;5010815;28;20054;-75
2023/07/28 11:01:10;;;;;;;0.80;0.10;;;;;;;18.78;63.48;100144.59;5010552;28;20050;-74
2023/07/28 11:03:37;;;;;;;0.28;0.10;;;;;;;18.75;63.58;100137.72;5010626;28;20061;-74
2023/07/28 11:06:06;;;;;;;0.20;0.10;;;;;;;18.73;63.49;100136.94;5010711;28;20052;-75
2023/07/28 11:08:34;;;;;;;1.95;0.10;;;;;;;18.70;63.69;100136.25;5007036;28;20942;-74
2023/07/28 11:11:05;;;;;;;0.40;0.17;;;;;;;18.66;63.81;100132.97;5009045;28;20053;-74
2023/07/28 11:13:32;;;;;;;0.63;0.10;;;;;;;18.62;63.79;100142.91;5009215;28;20057;-74
2023/07/28 11:15:59;;;;;;;0.10;0.10;;;;;;;18.60;64.07;100147.44;5010366;28;20135;-75
2023/07/28 11:18:27;;;;;;;0.10;0.03;;;;;;;18.53;64.12;100140.81;5009933;28;20050;-74
2023/07/28 11:20:53;;;;;;;0.40;0.10;;;;;;;18.54;64.36;100155.75;5010308;28;20128;-73
2023/07/28 11:23:22;;;;;;;0.68;0.20;;;;;;;18.53;64.35;100153.22;5010511;28;20530;-73
2023/07/28 11:25:49;;;;;;;0.55;0.10;;;;;;;18.49;64.45;100152.53;5010310;28;20077;-74
2023/07/28 11:28:15;;;;;;;2.08;0.20;;;;;;;18.44;64.52;100154.59;5010321;28;20049;-74